sensor_id;sensor_type;location;lat;lon;timestamp;temperature;humidity
32428;DHT22;18882;50.952;4.366;2022-07-05T00:00:57;16.10;99.90
32428;DHT22;18882;50.952;4.366;2022-07-05T00:03:23;16.10;99.90
32428;DHT22;18882;50.952;4.366;2022-07-05T00:05:49;16.00;99.90
32428;DHT22;18882;50.952;4.366;2022-07-05T00:08:15;16.00;99.90
32428;DHT22;18882;50.952;4.366;2022-07-05T00:10:40;16.00;99.90
32428;DHT22;18882;50.952;4.366;2022-07-05T00:13:07;15.90;99.90
32428;DHT22;18882;50.952;4.366;2022-07-05T00:15:32;15.90;99.90
32428;DHT22;18882;50.952;4.366;2022-07-05T00:17:58;15.90;99.90
32428;DHT22;18882;50.952;4.366;2022-07-05T00:20:24;15.90;99.90
32428;DHT22;18882;50.952;4.366;2022-07-05T00:22:50;15.90;99.90
32428;DHT22;18882;50.952;4.366;2022-07-05T00:25:15;15.80;99.90
32428;DHT22;18882;50.952;4.366;2022-07-05T00:27:41;15.80;99.90
32428;DHT22;18882;50.952;4.366;2022-07-05T00:30:08;15.70;99.90
32428;DHT22;18882;50.952;4.366;2022-07-05T00:32:34;15.60;99.90
32428;DHT22;18882;50.952;4.366;2022-07-05T00:35:00;15.60;99.90
32428;DHT22;18882;50.952;4.366;2022-07-05T00:37:26;15.60;99.90
32428;DHT22;18882;50.952;4.366;2022-07-05T00:39:51;15.60;99.90
32428;DHT22;18882;50.952;4.366;2022-07-05T00:42:17;15.60;99.90
32428;DHT22;18882;50.952;4.366;2022-07-05T00:44:43;15.50;99.90
32428;DHT22;18882;50.952;4.366;2022-07-05T00:47:10;15.60;99.90
32428;DHT22;18882;50.952;4.366;2022-07-05T00:49:37;15.60;99.90
32428;DHT22;18882;50.952;4.366;2022-07-05T00:52:04;15.60;99.90
32428;DHT22;18882;50.952;4.366;2022-07-05T00:54:33;15.60;99.90
32428;DHT22;18882;50.952;4.366;2022-07-05T00:56:59;15.60;99.90
32428;DHT22;18882;50.952;4.366;2022-07-05T00:59:26;15.70;99.90
32428;DHT22;18882;50.952;4.366;2022-07-05T01:01:52;15.50;99.90
32428;DHT22;18882;50.952;4.366;2022-07-05T01:04:18;15.30;99.90
32428;DHT22;18882;50.952;4.366;2022-07-05T01:06:47;15.30;99.90
32428;DHT22;18882;50.952;4.366;2022-07-05T01:09:15;15.30;99.90
32428;DHT22;18882;50.952;4.366;2022-07-05T01:11:45;15.20;99.90
32428;DHT22;18882;50.952;4.366;2022-07-05T01:14:22;15.10;99.90
32428;DHT22;18882;50.952;4.366;2022-07-05T01:16:50;15.00;99.90
32428;DHT22;18882;50.952;4.366;2022-07-05T01:19:16;15.10;99.90
32428;DHT22;18882;50.952;4.366;2022-07-05T01:21:44;15.10;99.90
32428;DHT22;18882;50.952;4.366;2022-07-05T01:24:11;15.10;99.90
32428;DHT22;18882;50.952;4.366;2022-07-05T01:26:38;15.10;99.90
32428;DHT22;18882;50.952;4.366;2022-07-05T01:29:05;15.10;99.90
32428;DHT22;18882;50.952;4.366;2022-07-05T01:31:31;15.10;99.90
32428;DHT22;18882;50.952;4.366;2022-07-05T01:33:56;15.10;99.90
32428;DHT22;18882;50.952;4.366;2022-07-05T01:36:22;15.10;99.90
32428;DHT22;18882;50.952;4.366;2022-07-05T01:38:49;15.00;99.90
32428;DHT22;18882;50.952;4.366;2022-07-05T01:41:15;15.00;99.90
32428;DHT22;18882;50.952;4.366;2022-07-05T01:43:41;14.90;99.90
32428;DHT22;18882;50.952;4.366;2022-07-05T01:46:08;14.90;99.90
32428;DHT22;18882;50.952;4.366;2022-07-05T01:48:35;14.90;99.90
32428;DHT22;18882;50.952;4.366;2022-07-05T01:51:22;14.90;99.90
32428;DHT22;18882;50.952;4.366;2022-07-05T01:53:53;14.80;99.90
32428;DHT22;18882;50.952;4.366;2022-07-05T01:56:19;14.80;99.90
32428;DHT22;18882;50.952;4.366;2022-07-05T01:58:45;14.70;99.90
32428;DHT22;18882;50.952;4.366;2022-07-05T02:01:12;14.60;99.90
32428;DHT22;18882;50.952;4.366;2022-07-05T02:03:39;14.60;99.90
32428;DHT22;18882;50.952;4.366;2022-07-05T02:06:05;14.60;99.90
32428;DHT22;18882;50.952;4.366;2022-07-05T02:08:33;14.70;99.90
32428;DHT22;18882;50.952;4.366;2022-07-05T02:10:58;14.70;99.90
32428;DHT22;18882;50.952;4.366;2022-07-05T02:13:24;14.70;99.90
32428;DHT22;18882;50.952;4.366;2022-07-05T02:15:50;14.70;99.90
32428;DHT22;18882;50.952;4.366;2022-07-05T02:18:15;14.50;99.90
32428;DHT22;18882;50.952;4.366;2022-07-05T02:20:41;14.60;99.90
32428;DHT22;18882;50.952;4.366;2022-07-05T02:23:07;14.60;99.90
32428;DHT22;18882;50.952;4.366;2022-07-05T02:25:33;14.50;99.90
32428;DHT22;18882;50.952;4.366;2022-07-05T02:28:00;14.50;99.90
32428;DHT22;18882;50.952;4.366;2022-07-05T02:30:26;14.50;99.90
32428;DHT22;18882;50.952;4.366;2022-07-05T02:32:51;14.50;99.90
32428;DHT22;18882;50.952;4.366;2022-07-05T02:35:17;14.50;99.90
32428;DHT22;18882;50.952;4.366;2022-07-05T02:37:43;14.50;99.90
32428;DHT22;18882;50.952;4.366;2022-07-05T02:40:13;14.50;99.90
32428;DHT22;18882;50.952;4.366;2022-07-05T02:42:39;14.50;99.90
32428;DHT22;18882;50.952;4.366;2022-07-05T02:45:06;14.50;99.90
32428;DHT22;18882;50.952;4.366;2022-07-05T02:47:33;14.60;99.90
32428;DHT22;18882;50.952;4.366;2022-07-05T02:50:06;14.70;99.90
32428;DHT22;18882;50.952;4.366;2022-07-05T02:52:34;14.60;99.90
32428;DHT22;18882;50.952;4.366;2022-07-05T02:54:59;14.50;99.90
32428;DHT22;18882;50.952;4.366;2022-07-05T02:57:25;14.50;99.90
32428;DHT22;18882;50.952;4.366;2022-07-05T02:59:55;14.40;99.90
32428;DHT22;18882;50.952;4.366;2022-07-05T03:02:21;14.50;99.90
32428;DHT22;18882;50.952;4.366;2022-07-05T03:04:47;14.60;99.90
32428;DHT22;18882;50.952;4.366;2022-07-05T03:07:13;14.60;99.90
32428;DHT22;18882;50.952;4.366;2022-07-05T03:09:39;14.60;99.90
32428;DHT22;18882;50.952;4.366;2022-07-05T03:12:05;14.50;99.90
32428;DHT22;18882;50.952;4.366;2022-07-05T03:14:31;14.50;99.90
32428;DHT22;18882;50.952;4.366;2022-07-05T03:16:57;14.60;99.90
32428;DHT22;18882;50.952;4.366;2022-07-05T03:19:22;14.50;99.90
32428;DHT22;18882;50.952;4.366;2022-07-05T03:21:48;14.50;99.90
32428;DHT22;18882;50.952;4.366;2022-07-05T03:24:13;14.50;99.90
32428;DHT22;18882;50.952;4.366;2022-07-05T03:26:39;14.40;99.90
32428;DHT22;18882;50.952;4.366;2022-07-05T03:29:05;14.40;99.90
32428;DHT22;18882;50.952;4.366;2022-07-05T03:31:31;14.40;99.90
32428;DHT22;18882;50.952;4.366;2022-07-05T03:33:56;14.30;99.90
32428;DHT22;18882;50.952;4.366;2022-07-05T03:36:22;14.40;99.90
32428;DHT22;18882;50.952;4.366;2022-07-05T03:38:48;14.30;99.90
32428;DHT22;18882;50.952;4.366;2022-07-05T03:41:14;14.40;99.90
32428;DHT22;18882;50.952;4.366;2022-07-05T03:43:39;14.40;99.90
32428;DHT22;18882;50.952;4.366;2022-07-05T03:46:05;14.50;99.90
32428;DHT22;18882;50.952;4.366;2022-07-05T03:48:31;14.50;99.90
32428;DHT22;18882;50.952;4.366;2022-07-05T03:50:56;14.50;99.90
32428;DHT22;18882;50.952;4.366;2022-07-05T03:53:23;14.40;99.90
32428;DHT22;18882;50.952;4.366;2022-07-05T03:55:48;14.30;99.90
32428;DHT22;18882;50.952;4.366;2022-07-05T03:58:14;14.20;99.90
32428;DHT22;18882;50.952;4.366;2022-07-05T04:00:40;14.20;99.90
32428;DHT22;18882;50.952;4.366;2022-07-05T04:03:05;14.20;99.90
32428;DHT22;18882;50.952;4.366;2022-07-05T04:05:31;14.20;99.90
32428;DHT22;18882;50.952;4.366;2022-07-05T04:07:57;14.30;99.90
32428;DHT22;18882;50.952;4.366;2022-07-05T04:10:23;14.30;99.90
32428;DHT22;18882;50.952;4.366;2022-07-05T04:12:49;14.30;99.90
32428;DHT22;18882;50.952;4.366;2022-07-05T04:15:15;14.30;99.90
32428;DHT22;18882;50.952;4.366;2022-07-05T04:20:13;14.50;99.90
32428;DHT22;18882;50.952;4.366;2022-07-05T04:22:38;14.60;99.90
32428;DHT22;18882;50.952;4.366;2022-07-05T04:25:04;14.60;99.90
32428;DHT22;18882;50.952;4.366;2022-07-05T04:27:45;14.60;99.90
32428;DHT22;18882;50.952;4.366;2022-07-05T04:30:11;14.70;99.90
32428;DHT22;18882;50.952;4.366;2022-07-05T04:32:37;14.70;99.90
32428;DHT22;18882;50.952;4.366;2022-07-05T04:35:03;14.70;99.90
32428;DHT22;18882;50.952;4.366;2022-07-05T04:37:29;14.70;99.90
32428;DHT22;18882;50.952;4.366;2022-07-05T04:39:55;14.70;99.90
32428;DHT22;18882;50.952;4.366;2022-07-05T04:42:20;14.80;99.90
32428;DHT22;18882;50.952;4.366;2022-07-05T04:44:46;14.80;99.90
32428;DHT22;18882;50.952;4.366;2022-07-05T04:47:12;14.90;99.90
32428;DHT22;18882;50.952;4.366;2022-07-05T04:49:37;14.90;99.90
32428;DHT22;18882;50.952;4.366;2022-07-05T04:52:03;14.80;99.90
32428;DHT22;18882;50.952;4.366;2022-07-05T04:54:29;14.90;99.90
32428;DHT22;18882;50.952;4.366;2022-07-05T04:56:55;14.90;99.90
32428;DHT22;18882;50.952;4.366;2022-07-05T04:59:20;15.00;99.90
32428;DHT22;18882;50.952;4.366;2022-07-05T05:01:46;15.20;99.90
32428;DHT22;18882;50.952;4.366;2022-07-05T05:04:11;15.20;99.90
32428;DHT22;18882;50.952;4.366;2022-07-05T05:06:37;15.50;99.90
32428;DHT22;18882;50.952;4.366;2022-07-05T05:09:03;15.50;99.90
32428;DHT22;18882;50.952;4.366;2022-07-05T05:11:28;15.70;99.90
32428;DHT22;18882;50.952;4.366;2022-07-05T05:13:54;15.70;99.90
32428;DHT22;18882;50.952;4.366;2022-07-05T05:16:20;15.80;99.90
32428;DHT22;18882;50.952;4.366;2022-07-05T05:18:45;15.70;99.90
32428;DHT22;18882;50.952;4.366;2022-07-05T05:21:11;15.80;99.90
32428;DHT22;18882;50.952;4.366;2022-07-05T05:23:37;15.80;99.90
32428;DHT22;18882;50.952;4.366;2022-07-05T05:26:03;15.80;99.90
32428;DHT22;18882;50.952;4.366;2022-07-05T05:28:28;15.90;99.90
32428;DHT22;18882;50.952;4.366;2022-07-05T05:30:55;16.00;99.90
32428;DHT22;18882;50.952;4.366;2022-07-05T05:33:20;16.10;99.90
32428;DHT22;18882;50.952;4.366;2022-07-05T05:35:46;16.10;99.90
32428;DHT22;18882;50.952;4.366;2022-07-05T05:38:12;16.10;99.90
32428;DHT22;18882;50.952;4.366;2022-07-05T05:40:37;16.10;99.90
32428;DHT22;18882;50.952;4.366;2022-07-05T05:43:04;16.30;99.90
32428;DHT22;18882;50.952;4.366;2022-07-05T05:45:30;16.40;99.90
32428;DHT22;18882;50.952;4.366;2022-07-05T05:47:57;16.50;99.90
32428;DHT22;18882;50.952;4.366;2022-07-05T05:50:29;16.70;99.90
32428;DHT22;18882;50.952;4.366;2022-07-05T05:52:55;16.90;99.90
32428;DHT22;18882;50.952;4.366;2022-07-05T05:55:22;17.00;99.90
32428;DHT22;18882;50.952;4.366;2022-07-05T05:57:48;17.10;99.90
32428;DHT22;18882;50.952;4.366;2022-07-05T06:00:14;17.10;99.90
32428;DHT22;18882;50.952;4.366;2022-07-05T06:02:41;17.20;99.90
32428;DHT22;18882;50.952;4.366;2022-07-05T06:05:07;17.30;99.90
32428;DHT22;18882;50.952;4.366;2022-07-05T06:08:03;17.50;99.90
32428;DHT22;18882;50.952;4.366;2022-07-05T06:10:31;17.60;99.90
32428;DHT22;18882;50.952;4.366;2022-07-05T06:12:59;17.60;99.90
32428;DHT22;18882;50.952;4.366;2022-07-05T06:15:25;17.70;99.90
32428;DHT22;18882;50.952;4.366;2022-07-05T06:17:51;17.70;99.90
32428;DHT22;18882;50.952;4.366;2022-07-05T06:20:28;17.80;99.90
32428;DHT22;18882;50.952;4.366;2022-07-05T06:22:55;17.90;99.90
32428;DHT22;18882;50.952;4.366;2022-07-05T06:25:22;17.90;99.90
32428;DHT22;18882;50.952;4.366;2022-07-05T06:27:50;17.90;99.90
32428;DHT22;18882;50.952;4.366;2022-07-05T06:30:18;17.90;99.90
32428;DHT22;18882;50.952;4.366;2022-07-05T06:32:45;18.00;99.90
32428;DHT22;18882;50.952;4.366;2022-07-05T06:35:11;18.10;99.90
32428;DHT22;18882;50.952;4.366;2022-07-05T06:37:48;18.10;99.90
32428;DHT22;18882;50.952;4.366;2022-07-05T06:40:19;18.30;99.90
32428;DHT22;18882;50.952;4.366;2022-07-05T06:42:46;18.50;99.90
32428;DHT22;18882;50.952;4.366;2022-07-05T06:45:12;18.50;99.90
32428;DHT22;18882;50.952;4.366;2022-07-05T06:47:38;18.60;99.90
32428;DHT22;18882;50.952;4.366;2022-07-05T06:50:04;18.50;99.90
32428;DHT22;18882;50.952;4.366;2022-07-05T06:52:31;18.60;99.90
32428;DHT22;18882;50.952;4.366;2022-07-05T06:54:58;18.60;99.90
32428;DHT22;18882;50.952;4.366;2022-07-05T06:57:24;18.60;99.90
32428;DHT22;18882;50.952;4.366;2022-07-05T06:59:50;18.80;99.90
32428;DHT22;18882;50.952;4.366;2022-07-05T07:02:16;19.00;99.90
32428;DHT22;18882;50.952;4.366;2022-07-05T07:04:43;19.20;99.90
32428;DHT22;18882;50.952;4.366;2022-07-05T07:07:09;19.20;99.90
32428;DHT22;18882;50.952;4.366;2022-07-05T07:09:58;19.30;99.90
32428;DHT22;18882;50.952;4.366;2022-07-05T07:12:25;19.50;99.90
32428;DHT22;18882;50.952;4.366;2022-07-05T07:14:51;19.40;99.90
32428;DHT22;18882;50.952;4.366;2022-07-05T07:17:17;19.40;99.90
32428;DHT22;18882;50.952;4.366;2022-07-05T07:19:43;19.50;99.90
32428;DHT22;18882;50.952;4.366;2022-07-05T07:22:09;19.60;99.90
32428;DHT22;18882;50.952;4.366;2022-07-05T07:24:34;19.30;99.90
32428;DHT22;18882;50.952;4.366;2022-07-05T07:27:00;19.30;99.90
32428;DHT22;18882;50.952;4.366;2022-07-05T07:29:30;19.40;99.90
32428;DHT22;18882;50.952;4.366;2022-07-05T07:31:56;19.60;99.90
32428;DHT22;18882;50.952;4.366;2022-07-05T07:34:22;19.80;99.90
32428;DHT22;18882;50.952;4.366;2022-07-05T07:36:49;19.90;99.90
32428;DHT22;18882;50.952;4.366;2022-07-05T07:39:14;19.90;99.90
32428;DHT22;18882;50.952;4.366;2022-07-05T07:41:40;20.00;99.90
32428;DHT22;18882;50.952;4.366;2022-07-05T07:44:06;20.20;99.90
32428;DHT22;18882;50.952;4.366;2022-07-05T07:46:31;20.30;99.90
32428;DHT22;18882;50.952;4.366;2022-07-05T07:48:57;20.50;99.90
32428;DHT22;18882;50.952;4.366;2022-07-05T07:51:23;20.60;99.90
32428;DHT22;18882;50.952;4.366;2022-07-05T07:53:49;20.70;99.90
32428;DHT22;18882;50.952;4.366;2022-07-05T07:56:15;20.60;99.90
32428;DHT22;18882;50.952;4.366;2022-07-05T07:58:41;20.80;99.90
32428;DHT22;18882;50.952;4.366;2022-07-05T08:01:07;21.00;99.90
32428;DHT22;18882;50.952;4.366;2022-07-05T08:03:37;21.10;99.90
32428;DHT22;18882;50.952;4.366;2022-07-05T08:06:03;21.30;99.90
32428;DHT22;18882;50.952;4.366;2022-07-05T08:08:29;21.10;99.90
32428;DHT22;18882;50.952;4.366;2022-07-05T08:10:54;21.00;99.90
32428;DHT22;18882;50.952;4.366;2022-07-05T08:13:20;21.20;99.90
32428;DHT22;18882;50.952;4.366;2022-07-05T08:15:46;21.50;99.90
32428;DHT22;18882;50.952;4.366;2022-07-05T08:18:11;21.60;99.90
32428;DHT22;18882;50.952;4.366;2022-07-05T08:20:56;21.80;99.90
32428;DHT22;18882;50.952;4.366;2022-07-05T08:23:40;21.80;99.90
32428;DHT22;18882;50.952;4.366;2022-07-05T08:26:05;21.80;99.90
32428;DHT22;18882;50.952;4.366;2022-07-05T08:28:31;21.90;99.90
32428;DHT22;18882;50.952;4.366;2022-07-05T08:30:57;21.80;99.90
32428;DHT22;18882;50.952;4.366;2022-07-05T08:33:22;21.50;99.90
32428;DHT22;18882;50.952;4.366;2022-07-05T08:35:49;21.50;99.90
32428;DHT22;18882;50.952;4.366;2022-07-05T08:38:15;21.50;99.90
32428;DHT22;18882;50.952;4.366;2022-07-05T08:40:44;21.60;99.90
32428;DHT22;18882;50.952;4.366;2022-07-05T08:43:12;21.70;99.90
32428;DHT22;18882;50.952;4.366;2022-07-05T08:45:39;21.70;99.90
32428;DHT22;18882;50.952;4.366;2022-07-05T08:48:05;21.90;99.90
32428;DHT22;18882;50.952;4.366;2022-07-05T08:50:33;22.00;99.90
32428;DHT22;18882;50.952;4.366;2022-07-05T08:53:01;22.10;99.90
32428;DHT22;18882;50.952;4.366;2022-07-05T08:55:26;22.30;99.90
32428;DHT22;18882;50.952;4.366;2022-07-05T08:57:52;22.60;99.90
32428;DHT22;18882;50.952;4.366;2022-07-05T09:00:18;22.60;99.90
32428;DHT22;18882;50.952;4.366;2022-07-05T09:02:44;22.70;99.90
32428;DHT22;18882;50.952;4.366;2022-07-05T09:05:13;22.70;99.90
32428;DHT22;18882;50.952;4.366;2022-07-05T09:07:52;22.50;99.90
32428;DHT22;18882;50.952;4.366;2022-07-05T09:10:22;22.50;99.90
32428;DHT22;18882;50.952;4.366;2022-07-05T09:12:50;22.20;99.90
32428;DHT22;18882;50.952;4.366;2022-07-05T09:15:15;22.40;99.90
32428;DHT22;18882;50.952;4.366;2022-07-05T09:17:44;22.70;99.90
32428;DHT22;18882;50.952;4.366;2022-07-05T09:20:18;23.00;99.90
32428;DHT22;18882;50.952;4.366;2022-07-05T09:22:52;23.20;99.90
32428;DHT22;18882;50.952;4.366;2022-07-05T09:27:52;23.50;99.90
32428;DHT22;18882;50.952;4.366;2022-07-05T09:33:18;23.60;99.90
32428;DHT22;18882;50.952;4.366;2022-07-05T09:35:51;23.50;99.90
32428;DHT22;18882;50.952;4.366;2022-07-05T09:38:21;23.50;99.90
32428;DHT22;18882;50.952;4.366;2022-07-05T09:40:53;23.60;99.90
32428;DHT22;18882;50.952;4.366;2022-07-05T09:43:23;23.70;99.90
32428;DHT22;18882;50.952;4.366;2022-07-05T09:45:57;23.80;99.90
32428;DHT22;18882;50.952;4.366;2022-07-05T09:48:24;23.90;99.90
32428;DHT22;18882;50.952;4.366;2022-07-05T09:50:50;24.10;99.90
32428;DHT22;18882;50.952;4.366;2022-07-05T09:53:19;24.70;99.90
32428;DHT22;18882;50.952;4.366;2022-07-05T09:56:03;24.60;99.90
32428;DHT22;18882;50.952;4.366;2022-07-05T09:58:29;25.20;99.90
32428;DHT22;18882;50.952;4.366;2022-07-05T10:00:56;25.40;99.90
32428;DHT22;18882;50.952;4.366;2022-07-05T10:03:22;25.40;99.90
32428;DHT22;18882;50.952;4.366;2022-07-05T10:05:48;25.80;99.90
32428;DHT22;18882;50.952;4.366;2022-07-05T10:08:14;26.10;99.90
32428;DHT22;18882;50.952;4.366;2022-07-05T10:10:41;26.10;99.90
32428;DHT22;18882;50.952;4.366;2022-07-05T10:13:09;25.90;99.90
32428;DHT22;18882;50.952;4.366;2022-07-05T10:15:35;25.60;99.90
32428;DHT22;18882;50.952;4.366;2022-07-05T10:18:12;25.50;99.90
32428;DHT22;18882;50.952;4.366;2022-07-05T10:20:44;25.10;99.90
32428;DHT22;18882;50.952;4.366;2022-07-05T10:23:15;25.00;99.90
32428;DHT22;18882;50.952;4.366;2022-07-05T10:25:43;24.90;99.90
32428;DHT22;18882;50.952;4.366;2022-07-05T10:28:10;24.70;99.90
32428;DHT22;18882;50.952;4.366;2022-07-05T10:30:36;24.50;99.90
32428;DHT22;18882;50.952;4.366;2022-07-05T10:33:06;24.50;99.90
32428;DHT22;18882;50.952;4.366;2022-07-05T10:35:31;24.50;99.90
32428;DHT22;18882;50.952;4.366;2022-07-05T10:37:58;24.60;99.90
32428;DHT22;18882;50.952;4.366;2022-07-05T10:40:25;24.90;99.90
32428;DHT22;18882;50.952;4.366;2022-07-05T10:42:55;24.90;99.90
32428;DHT22;18882;50.952;4.366;2022-07-05T10:45:35;24.40;99.90
32428;DHT22;18882;50.952;4.366;2022-07-05T10:48:17;24.60;99.90
32428;DHT22;18882;50.952;4.366;2022-07-05T10:54:00;24.70;99.90
32428;DHT22;18882;50.952;4.366;2022-07-05T10:56:15;24.90;99.90
32428;DHT22;18882;50.952;4.366;2022-07-05T10:58:44;25.10;99.90
32428;DHT22;18882;50.952;4.366;2022-07-05T11:06:28;25.10;99.90
32428;DHT22;18882;50.952;4.366;2022-07-05T11:13:54;25.40;99.90
32428;DHT22;18882;50.952;4.366;2022-07-05T11:18:53;25.80;99.90
32428;DHT22;18882;50.952;4.366;2022-07-05T11:21:22;25.90;99.90
32428;DHT22;18882;50.952;4.366;2022-07-05T11:23:48;25.30;99.90
32428;DHT22;18882;50.952;4.366;2022-07-05T11:26:17;24.50;99.90
32428;DHT22;18882;50.952;4.366;2022-07-05T11:28:46;24.20;99.90
32428;DHT22;18882;50.952;4.366;2022-07-05T11:31:42;23.70;99.90
32428;DHT22;18882;50.952;4.366;2022-07-05T11:34:14;23.50;99.90
32428;DHT22;18882;50.952;4.366;2022-07-05T11:36:40;23.90;99.90
32428;DHT22;18882;50.952;4.366;2022-07-05T11:39:16;24.00;99.90
32428;DHT22;18882;50.952;4.366;2022-07-05T11:41:44;24.20;99.90
32428;DHT22;18882;50.952;4.366;2022-07-05T11:44:10;24.20;99.90
32428;DHT22;18882;50.952;4.366;2022-07-05T11:46:37;24.10;99.90
32428;DHT22;18882;50.952;4.366;2022-07-05T11:49:02;24.30;99.90
32428;DHT22;18882;50.952;4.366;2022-07-05T11:51:29;24.70;99.90
32428;DHT22;18882;50.952;4.366;2022-07-05T11:53:54;24.80;99.90
32428;DHT22;18882;50.952;4.366;2022-07-05T11:56:20;24.40;99.90
32428;DHT22;18882;50.952;4.366;2022-07-05T11:58:46;24.00;99.90
32428;DHT22;18882;50.952;4.366;2022-07-05T12:01:12;24.00;99.90
32428;DHT22;18882;50.952;4.366;2022-07-05T12:03:37;23.90;99.90
32428;DHT22;18882;50.952;4.366;2022-07-05T12:06:14;23.60;99.90
32428;DHT22;18882;50.952;4.366;2022-07-05T12:08:41;23.70;99.90
32428;DHT22;18882;50.952;4.366;2022-07-05T12:11:10;24.00;99.90
32428;DHT22;18882;50.952;4.366;2022-07-05T12:13:55;24.30;99.90
32428;DHT22;18882;50.952;4.366;2022-07-05T12:16:20;24.40;99.90
32428;DHT22;18882;50.952;4.366;2022-07-05T12:18:54;24.50;99.90
32428;DHT22;18882;50.952;4.366;2022-07-05T12:21:21;24.40;99.90
32428;DHT22;18882;50.952;4.366;2022-07-05T12:23:48;24.20;99.90
32428;DHT22;18882;50.952;4.366;2022-07-05T12:26:18;23.90;99.90
32428;DHT22;18882;50.952;4.366;2022-07-05T12:28:45;23.80;99.90
32428;DHT22;18882;50.952;4.366;2022-07-05T12:31:29;23.70;99.90
32428;DHT22;18882;50.952;4.366;2022-07-05T12:34:16;23.50;99.90
32428;DHT22;18882;50.952;4.366;2022-07-05T12:36:42;23.70;99.90
32428;DHT22;18882;50.952;4.366;2022-07-05T12:39:08;23.50;99.90
32428;DHT22;18882;50.952;4.366;2022-07-05T12:41:33;23.60;99.90
32428;DHT22;18882;50.952;4.366;2022-07-05T12:43:59;23.00;99.90
32428;DHT22;18882;50.952;4.366;2022-07-05T12:46:40;22.70;99.90
32428;DHT22;18882;50.952;4.366;2022-07-05T12:49:06;22.80;99.90
32428;DHT22;18882;50.952;4.366;2022-07-05T12:51:34;23.10;99.90
32428;DHT22;18882;50.952;4.366;2022-07-05T12:54:00;23.30;99.90
32428;DHT22;18882;50.952;4.366;2022-07-05T12:56:49;23.30;99.90
32428;DHT22;18882;50.952;4.366;2022-07-05T12:59:34;23.20;99.90
32428;DHT22;18882;50.952;4.366;2022-07-05T13:02:01;23.00;99.90
32428;DHT22;18882;50.952;4.366;2022-07-05T13:04:27;23.50;99.90
32428;DHT22;18882;50.952;4.366;2022-07-05T13:06:58;23.90;99.90
32428;DHT22;18882;50.952;4.366;2022-07-05T13:12:11;24.20;99.90
32428;DHT22;18882;50.952;4.366;2022-07-05T13:14:42;24.00;99.90
32428;DHT22;18882;50.952;4.366;2022-07-05T13:17:10;24.00;99.90
32428;DHT22;18882;50.952;4.366;2022-07-05T13:19:36;24.20;99.90
32428;DHT22;18882;50.952;4.366;2022-07-05T13:22:03;24.40;99.90
32428;DHT22;18882;50.952;4.366;2022-07-05T13:24:30;24.50;99.90
32428;DHT22;18882;50.952;4.366;2022-07-05T13:26:56;24.10;99.90
32428;DHT22;18882;50.952;4.366;2022-07-05T13:29:22;23.90;99.90
32428;DHT22;18882;50.952;4.366;2022-07-05T13:31:48;23.70;99.90
32428;DHT22;18882;50.952;4.366;2022-07-05T13:34:14;23.40;99.90
32428;DHT22;18882;50.952;4.366;2022-07-05T13:36:39;23.20;99.90
32428;DHT22;18882;50.952;4.366;2022-07-05T13:39:05;23.10;99.90
32428;DHT22;18882;50.952;4.366;2022-07-05T13:41:31;23.00;99.90
32428;DHT22;18882;50.952;4.366;2022-07-05T13:43:58;22.70;99.90
32428;DHT22;18882;50.952;4.366;2022-07-05T13:46:23;22.60;99.90
32428;DHT22;18882;50.952;4.366;2022-07-05T13:48:49;22.50;99.90
32428;DHT22;18882;50.952;4.366;2022-07-05T13:51:15;22.70;99.90
32428;DHT22;18882;50.952;4.366;2022-07-05T13:53:41;22.60;99.90
32428;DHT22;18882;50.952;4.366;2022-07-05T13:56:06;22.60;99.90
32428;DHT22;18882;50.952;4.366;2022-07-05T13:58:32;22.70;99.90
32428;DHT22;18882;50.952;4.366;2022-07-05T14:00:59;22.90;99.90
32428;DHT22;18882;50.952;4.366;2022-07-05T14:03:25;22.80;99.90
32428;DHT22;18882;50.952;4.366;2022-07-05T14:05:51;22.60;99.90
32428;DHT22;18882;50.952;4.366;2022-07-05T14:08:17;22.50;99.90
32428;DHT22;18882;50.952;4.366;2022-07-05T14:10:54;22.40;99.90
32428;DHT22;18882;50.952;4.366;2022-07-05T14:13:24;22.40;99.90
32428;DHT22;18882;50.952;4.366;2022-07-05T14:15:50;22.20;99.90
32428;DHT22;18882;50.952;4.366;2022-07-05T14:18:18;22.20;99.90
32428;DHT22;18882;50.952;4.366;2022-07-05T14:20:44;22.10;99.90
32428;DHT22;18882;50.952;4.366;2022-07-05T14:23:11;22.40;99.90
32428;DHT22;18882;50.952;4.366;2022-07-05T14:25:37;22.10;99.90
32428;DHT22;18882;50.952;4.366;2022-07-05T14:28:03;21.80;99.90
32428;DHT22;18882;50.952;4.366;2022-07-05T14:30:34;21.50;99.90
32428;DHT22;18882;50.952;4.366;2022-07-05T14:32:59;21.30;99.90
32428;DHT22;18882;50.952;4.366;2022-07-05T14:35:25;21.20;99.90
32428;DHT22;18882;50.952;4.366;2022-07-05T14:37:52;21.10;99.90
32428;DHT22;18882;50.952;4.366;2022-07-05T14:40:18;21.00;99.90
32428;DHT22;18882;50.952;4.366;2022-07-05T14:42:44;20.80;99.90
32428;DHT22;18882;50.952;4.366;2022-07-05T14:45:10;20.90;99.90
32428;DHT22;18882;50.952;4.366;2022-07-05T14:47:36;20.90;99.90
32428;DHT22;18882;50.952;4.366;2022-07-05T14:50:01;20.90;99.90
32428;DHT22;18882;50.952;4.366;2022-07-05T14:52:27;20.80;99.90
32428;DHT22;18882;50.952;4.366;2022-07-05T14:54:55;20.70;99.90
32428;DHT22;18882;50.952;4.366;2022-07-05T14:57:20;20.80;99.90
32428;DHT22;18882;50.952;4.366;2022-07-05T14:59:46;21.00;99.90
32428;DHT22;18882;50.952;4.366;2022-07-05T15:02:12;21.20;99.90
32428;DHT22;18882;50.952;4.366;2022-07-05T15:04:40;21.60;99.90
32428;DHT22;18882;50.952;4.366;2022-07-05T15:07:05;21.90;99.90
32428;DHT22;18882;50.952;4.366;2022-07-05T15:09:31;22.10;99.90
32428;DHT22;18882;50.952;4.366;2022-07-05T15:11:57;22.30;99.90
32428;DHT22;18882;50.952;4.366;2022-07-05T15:14:22;22.30;99.90
32428;DHT22;18882;50.952;4.366;2022-07-05T15:16:48;22.10;99.90
32428;DHT22;18882;50.952;4.366;2022-07-05T15:19:14;21.60;99.90
32428;DHT22;18882;50.952;4.366;2022-07-05T15:21:39;21.30;99.90
32428;DHT22;18882;50.952;4.366;2022-07-05T15:24:06;21.30;99.90
32428;DHT22;18882;50.952;4.366;2022-07-05T15:26:32;21.50;99.90
32428;DHT22;18882;50.952;4.366;2022-07-05T15:29:06;21.30;99.90
32428;DHT22;18882;50.952;4.366;2022-07-05T15:31:33;21.10;99.90
32428;DHT22;18882;50.952;4.366;2022-07-05T15:34:00;21.20;99.90
32428;DHT22;18882;50.952;4.366;2022-07-05T15:36:27;21.00;99.90
32428;DHT22;18882;50.952;4.366;2022-07-05T15:38:53;20.90;99.90
32428;DHT22;18882;50.952;4.366;2022-07-05T15:41:19;20.80;99.90
32428;DHT22;18882;50.952;4.366;2022-07-05T15:43:45;21.00;99.90
32428;DHT22;18882;50.952;4.366;2022-07-05T15:46:11;21.20;99.90
32428;DHT22;18882;50.952;4.366;2022-07-05T15:48:37;21.60;99.90
32428;DHT22;18882;50.952;4.366;2022-07-05T15:51:03;21.70;99.90
32428;DHT22;18882;50.952;4.366;2022-07-05T15:53:30;21.60;99.90
32428;DHT22;18882;50.952;4.366;2022-07-05T15:55:56;21.50;99.90
32428;DHT22;18882;50.952;4.366;2022-07-05T15:58:32;21.10;99.90